createdAt,value
2022-10-24T00:00:29.946Z,2.20
2022-10-24T00:02:59.868Z,2.57
2022-10-24T00:05:29.728Z,2.20
2022-10-24T00:07:59.478Z,1.93
2022-10-24T00:10:29.274Z,2.20
2022-10-24T00:13:01.619Z,2.00
2022-10-24T00:15:31.355Z,2.43
2022-10-24T00:18:01.090Z,2.13
2022-10-24T00:20:30.895Z,2.27
2022-10-24T00:23:00.720Z,2.37
2022-10-24T00:25:30.459Z,2.40
2022-10-24T00:28:02.798Z,2.00
2022-10-24T00:30:32.583Z,2.47
2022-10-24T00:33:02.333Z,2.20
2022-10-24T00:35:32.599Z,1.93
2022-10-24T00:38:02.330Z,2.20
2022-10-24T00:40:32.051Z,2.50
2022-10-24T00:43:04.434Z,2.50
2022-10-24T00:45:44.860Z,2.67
2022-10-24T00:48:19.223Z,2.53
2022-10-24T00:50:51.638Z,2.67
2022-10-24T00:53:23.306Z,2.60
2022-10-24T00:55:56.294Z,2.90
2022-10-24T00:58:32.251Z,2.30
2022-10-24T01:01:02.420Z,2.33
2022-10-24T01:03:32.257Z,3.20
2022-10-24T01:06:26.705Z,2.27
2022-10-24T01:09:06.039Z,2.73
2022-10-24T01:11:53.149Z,2.93
2022-10-24T01:14:35.812Z,3.03
2022-10-24T01:17:14.987Z,2.80
2022-10-24T01:20:10.443Z,3.00
2022-10-24T01:22:51.006Z,3.10
2022-10-24T01:25:32.081Z,3.17
2022-10-24T01:28:07.175Z,3.20
2022-10-24T01:30:46.352Z,2.83
2022-10-24T01:33:23.134Z,3.00
2022-10-24T01:35:56.487Z,2.53
2022-10-24T01:38:31.338Z,2.70
2022-10-24T01:41:05.612Z,3.30
2022-10-24T01:43:39.011Z,3.30
2022-10-24T01:46:16.304Z,2.80
2022-10-24T01:48:50.321Z,3.30
2022-10-24T01:51:22.339Z,3.50
2022-10-24T01:53:53.878Z,3.27
2022-10-24T01:56:23.892Z,3.30
2022-10-24T01:58:53.654Z,3.00
2022-10-24T02:01:28.089Z,2.83
2022-10-24T02:04:01.163Z,3.90
2022-10-24T02:06:34.883Z,3.00
2022-10-24T02:09:10.255Z,2.57
2022-10-24T02:11:41.556Z,2.90
2022-10-24T02:14:17.230Z,2.93
2022-10-24T02:16:50.331Z,3.60
2022-10-24T02:19:20.987Z,3.50
2022-10-24T02:21:58.357Z,3.00
2022-10-24T02:24:34.164Z,3.23
2022-10-24T02:27:09.358Z,3.50
2022-10-24T02:29:44.627Z,3.07
2022-10-24T02:32:23.341Z,2.67
2022-10-24T02:34:53.108Z,2.90
2022-10-24T02:37:25.362Z,2.53
2022-10-24T02:39:57.721Z,3.00
2022-10-24T02:45:00.538Z,3.30
2022-10-24T02:47:34.618Z,3.03
2022-10-24T02:50:04.655Z,3.00
2022-10-24T02:52:35.396Z,2.70
2022-10-24T02:55:05.465Z,2.70
2022-10-24T02:57:35.194Z,2.90
2022-10-24T03:00:05.002Z,3.17
2022-10-24T03:02:37.436Z,2.80
2022-10-24T03:05:07.848Z,3.87
2022-10-24T03:07:37.608Z,2.77
2022-10-24T03:10:08.069Z,3.43
2022-10-24T03:12:37.824Z,2.67
2022-10-24T03:15:08.335Z,3.40
2022-10-24T03:17:40.740Z,3.00
2022-10-24T03:20:12.119Z,2.40
2022-10-24T03:22:41.888Z,3.03
2022-10-24T03:25:12.328Z,2.93
2022-10-24T03:27:42.303Z,2.37
2022-10-24T03:30:13.371Z,1.80
2022-10-24T03:32:46.292Z,2.70
2022-10-24T03:35:16.560Z,2.93
2022-10-24T03:37:46.424Z,2.43
2022-10-24T03:40:16.431Z,2.50
2022-10-24T03:42:46.617Z,3.10
2022-10-24T03:45:16.720Z,2.47
2022-10-24T03:47:49.140Z,3.30
2022-10-24T03:50:18.948Z,3.47
2022-10-24T03:52:48.708Z,2.77
2022-10-24T03:55:18.519Z,3.47
2022-10-24T03:57:48.320Z,2.67
2022-10-24T04:00:19.362Z,3.13
2022-10-24T04:02:52.747Z,2.87
2022-10-24T04:05:22.488Z,3.50
2022-10-24T04:07:52.231Z,3.40
2022-10-24T04:10:22.142Z,3.13
2022-10-24T04:12:51.933Z,4.40
2022-10-24T04:15:21.934Z,3.60
2022-10-24T04:17:54.330Z,2.90
2022-10-24T04:20:24.043Z,2.90
2022-10-24T04:22:53.825Z,3.00
2022-10-24T04:25:23.616Z,3.17
2022-10-24T04:27:53.427Z,3.20
2022-10-24T04:30:23.169Z,3.40
2022-10-24T04:32:56.536Z,3.50
2022-10-24T04:35:26.719Z,3.30
2022-10-24T04:37:56.715Z,3.93
2022-10-24T04:40:26.430Z,3.83
2022-10-24T04:42:56.197Z,3.43
2022-10-24T04:45:26.026Z,3.40
2022-10-24T04:47:58.369Z,3.50
2022-10-24T04:50:28.219Z,3.53
2022-10-24T04:52:58.056Z,3.47
2022-10-24T04:55:27.896Z,3.80
2022-10-24T04:57:57.717Z,4.10
2022-10-24T05:00:27.981Z,3.63
2022-10-24T05:03:00.331Z,3.20
2022-10-24T05:05:30.327Z,3.37
2022-10-24T05:08:00.212Z,3.57
2022-10-24T05:10:31.536Z,4.03
2022-10-24T05:13:01.294Z,3.50
2022-10-24T05:15:32.627Z,3.00
2022-10-24T05:18:05.178Z,3.77
2022-10-24T05:20:36.186Z,3.63
2022-10-24T05:23:07.209Z,3.37
2022-10-24T05:25:37.033Z,3.80
2022-10-24T05:28:07.116Z,4.67
2022-10-24T05:30:36.955Z,3.13
2022-10-24T05:33:09.377Z,3.90
2022-10-24T05:35:39.294Z,3.70
2022-10-24T05:38:10.327Z,4.07
2022-10-24T05:40:40.105Z,3.73
2022-10-24T05:43:11.262Z,4.00
2022-10-24T05:45:43.101Z,3.97
2022-10-24T05:48:15.535Z,3.80
2022-10-24T05:50:46.422Z,4.27
2022-10-24T05:53:16.228Z,3.93
2022-10-24T05:55:46.945Z,4.20
2022-10-24T05:58:21.044Z,4.60
2022-10-24T06:00:54.358Z,3.60
2022-10-24T06:03:27.268Z,4.40
2022-10-24T06:05:57.343Z,3.90
2022-10-24T06:08:27.211Z,3.67
2022-10-24T06:10:58.034Z,3.60
2022-10-24T06:13:32.529Z,3.70
2022-10-24T06:16:05.385Z,4.30
2022-10-24T06:18:38.156Z,4.50
2022-10-24T06:21:11.121Z,3.30
2022-10-24T06:23:42.361Z,3.90
2022-10-24T06:26:14.652Z,4.10
2022-10-24T06:28:45.491Z,4.13
2022-10-24T06:31:16.652Z,4.10
2022-10-24T06:33:49.389Z,4.70
2022-10-24T06:36:20.293Z,3.37
2022-10-24T06:38:51.403Z,4.67
2022-10-24T06:41:21.171Z,4.20
2022-10-24T06:43:53.460Z,3.60
2022-10-24T06:46:23.538Z,3.60
2022-10-24T06:48:58.766Z,3.43
2022-10-24T06:51:29.609Z,3.90
2022-10-24T06:54:00.525Z,4.13
2022-10-24T06:56:30.275Z,4.13
2022-10-24T06:59:01.029Z,3.50
2022-10-24T07:01:32.676Z,3.80
2022-10-24T07:04:05.429Z,3.40
2022-10-24T07:06:36.579Z,3.10
2022-10-24T07:09:11.526Z,4.37
2022-10-24T07:11:45.402Z,3.50
2022-10-24T07:14:15.476Z,3.47
2022-10-24T07:16:46.558Z,3.60
2022-10-24T07:19:20.165Z,4.10
2022-10-24T07:21:51.990Z,3.90
2022-10-24T07:24:22.838Z,4.03
2022-10-24T07:26:53.687Z,3.50
2022-10-24T07:29:24.544Z,3.40
2022-10-24T07:31:55.530Z,3.33
2022-10-24T07:34:29.022Z,3.60
2022-10-24T07:36:59.865Z,3.27
2022-10-24T07:39:34.622Z,4.03
2022-10-24T07:42:06.978Z,3.50
2022-10-24T07:44:37.806Z,4.00
2022-10-24T07:47:10.131Z,4.00
2022-10-24T07:49:43.588Z,4.03
2022-10-24T07:52:14.437Z,3.60
2022-10-24T07:54:45.373Z,3.40
2022-10-24T07:57:15.139Z,3.90
2022-10-24T07:59:45.925Z,3.60
2022-10-24T08:02:18.852Z,3.30
2022-10-24T08:04:52.367Z,3.00
2022-10-24T08:07:23.255Z,3.10
2022-10-24T08:09:55.091Z,3.10
2022-10-24T08:12:25.957Z,3.10
2022-10-24T08:14:55.894Z,3.30
2022-10-24T08:17:26.040Z,2.27
2022-10-24T08:19:58.572Z,2.60
2022-10-24T08:22:29.582Z,2.73
2022-10-24T08:25:00.363Z,2.10
2022-10-24T08:27:33.751Z,3.00
2022-10-24T08:30:06.801Z,3.10
2022-10-24T08:32:38.498Z,2.33
2022-10-24T08:35:12.645Z,3.57
2022-10-24T08:37:44.483Z,2.77
2022-10-24T08:40:19.203Z,3.30
2022-10-24T08:42:51.023Z,3.27
2022-10-24T08:45:29.819Z,2.50
2022-10-24T08:48:06.784Z,2.20
2022-10-24T08:50:44.114Z,2.67
2022-10-24T08:53:20.903Z,2.63
2022-10-24T08:55:55.542Z,2.50
2022-10-24T08:58:29.275Z,1.87
2022-10-24T09:01:03.024Z,2.50
2022-10-24T09:06:35.013Z,2.27
2022-10-24T09:09:08.798Z,2.43
2022-10-24T09:11:48.112Z,2.23
2022-10-24T09:14:20.787Z,1.93
2022-10-24T09:16:56.059Z,1.53
2022-10-24T09:19:29.488Z,1.50
2022-10-24T09:22:04.091Z,1.90
2022-10-24T09:24:42.260Z,1.83
2022-10-24T09:27:18.763Z,1.63
2022-10-24T09:29:50.647Z,2.07
2022-10-24T09:32:30.732Z,1.73
2022-10-24T09:35:03.126Z,1.70
2022-10-24T09:37:42.858Z,1.70
2022-10-24T09:40:22.018Z,1.73
2022-10-24T09:42:57.181Z,1.87
2022-10-24T09:45:42.374Z,1.57
2022-10-24T09:48:29.328Z,1.30
2022-10-24T09:51:02.821Z,1.77
2022-10-24T09:53:38.534Z,1.70
2022-10-24T09:56:12.831Z,1.60
2022-10-24T09:58:44.290Z,1.87
2022-10-24T10:01:23.371Z,1.77
2022-10-24T10:04:09.350Z,2.50
2022-10-24T10:06:46.984Z,2.40
2022-10-24T10:09:31.457Z,1.93
2022-10-24T10:12:03.204Z,2.03
2022-10-24T10:14:34.282Z,1.80
2022-10-24T10:17:08.166Z,1.70
2022-10-24T10:19:40.344Z,1.33
2022-10-24T10:22:25.725Z,1.70
2022-10-24T10:25:00.239Z,1.60
2022-10-24T10:27:35.533Z,1.53
2022-10-24T10:30:20.096Z,2.20
2022-10-24T10:33:01.140Z,1.80
2022-10-24T10:35:40.345Z,1.50
2022-10-24T10:38:30.622Z,1.97
2022-10-24T10:41:10.424Z,2.17
2022-10-24T10:43:46.796Z,2.10
2022-10-24T10:46:29.760Z,1.83
2022-10-24T10:49:12.608Z,1.43
2022-10-24T10:51:46.803Z,1.70
2022-10-24T10:54:44.300Z,1.53
2022-10-24T10:57:19.839Z,1.60
2022-10-24T10:59:59.270Z,1.63
2022-10-24T11:02:52.184Z,1.90
2022-10-24T11:05:35.910Z,1.77
2022-10-24T11:08:21.158Z,1.53
2022-10-24T11:10:56.836Z,1.70
2022-10-24T11:13:37.005Z,1.80
2022-10-24T11:16:14.859Z,1.70
2022-10-24T11:18:50.200Z,2.00
2022-10-24T11:21:24.040Z,1.60
2022-10-24T11:23:58.378Z,1.83
2022-10-24T11:26:33.566Z,1.80
2022-10-24T11:29:17.808Z,1.67
2022-10-24T11:31:51.796Z,1.47
2022-10-24T11:34:26.839Z,1.90
2022-10-24T11:37:03.307Z,1.87
2022-10-24T11:39:39.248Z,2.83
2022-10-24T11:42:19.794Z,1.70
2022-10-24T11:44:59.793Z,1.90
2022-10-24T11:47:52.267Z,2.10
2022-10-24T11:50:30.164Z,1.80
2022-10-24T11:53:07.730Z,1.70
2022-10-24T11:55:41.552Z,1.73
2022-10-24T11:58:17.486Z,1.10
2022-10-24T12:01:14.402Z,1.70
2022-10-24T12:04:01.176Z,1.90
2022-10-24T12:06:58.095Z,1.80
2022-10-24T12:09:51.541Z,1.50
2022-10-24T12:12:36.022Z,1.57
2022-10-24T12:15:23.318Z,1.80
2022-10-24T12:18:11.620Z,1.53
2022-10-24T12:20:43.015Z,1.20
2022-10-24T12:23:23.928Z,1.60
2022-10-24T12:26:05.806Z,1.70
2022-10-24T12:28:36.188Z,1.57
2022-10-24T12:31:26.328Z,1.90
2022-10-24T12:34:36.235Z,1.73
2022-10-24T12:37:14.253Z,1.77
2022-10-24T12:39:47.594Z,1.90
2022-10-24T12:42:39.395Z,1.87
2022-10-24T12:45:30.695Z,1.80
2022-10-24T12:48:31.251Z,1.20
2022-10-24T12:51:05.114Z,1.87
2022-10-24T12:54:02.304Z,1.43
2022-10-24T12:56:37.046Z,1.70
2022-10-24T12:59:21.911Z,1.83
2022-10-24T13:02:10.427Z,1.80
2022-10-24T13:05:02.573Z,1.80
2022-10-24T13:07:50.836Z,2.10
2022-10-24T13:10:39.400Z,1.73
2022-10-24T13:13:29.104Z,2.20
2022-10-24T13:16:05.839Z,2.27
2022-10-24T13:18:49.199Z,1.73
2022-10-24T13:21:26.831Z,2.13
2022-10-24T13:24:15.521Z,2.17
2022-10-24T13:26:51.284Z,1.97
2022-10-24T13:30:08.244Z,1.83
2022-10-24T13:32:39.078Z,1.70
2022-10-24T13:35:21.512Z,1.00
2022-10-24T13:37:59.162Z,1.80
2022-10-24T13:40:34.935Z,1.50
2022-10-24T13:43:16.990Z,1.70
2022-10-24T13:45:50.152Z,2.17
2022-10-24T13:48:24.322Z,1.73
2022-10-24T13:51:08.148Z,1.20
2022-10-24T13:53:50.211Z,2.10
2022-10-24T13:56:21.793Z,1.73
2022-10-24T13:58:54.210Z,1.60
2022-10-24T14:01:28.410Z,1.63
2022-10-24T14:04:03.387Z,1.97
2022-10-24T14:06:36.479Z,1.70
2022-10-24T14:09:11.723Z,1.90
2022-10-24T14:11:44.644Z,1.77
2022-10-24T14:14:30.976Z,2.30
2022-10-24T14:17:22.958Z,1.90
2022-10-24T14:19:55.927Z,1.47
2022-10-24T14:22:28.625Z,1.80
2022-10-24T14:24:59.540Z,1.47
2022-10-24T14:27:30.881Z,2.23
2022-10-24T14:30:07.281Z,1.47
2022-10-24T14:32:37.041Z,1.53
2022-10-24T14:35:08.864Z,1.30
2022-10-24T14:37:40.152Z,1.90
2022-10-24T14:40:18.634Z,1.70
2022-10-24T14:42:55.658Z,1.40
2022-10-24T14:45:33.086Z,1.23
2022-10-24T14:48:03.424Z,1.80
2022-10-24T14:50:37.800Z,1.50
2022-10-24T14:53:09.451Z,1.37
2022-10-24T14:55:39.364Z,1.60
2022-10-24T14:58:22.648Z,1.40
2022-10-24T15:00:57.045Z,1.80
2022-10-24T15:03:27.403Z,1.30
2022-10-24T15:05:59.727Z,1.83
2022-10-24T15:08:43.377Z,1.30
2022-10-24T15:11:21.773Z,1.53
2022-10-24T15:14:06.437Z,2.23
2022-10-24T15:16:42.204Z,2.10
2022-10-24T15:19:20.210Z,1.93
2022-10-24T15:21:50.320Z,2.10
2022-10-24T15:24:24.865Z,1.33
2022-10-24T15:27:11.629Z,2.00
2022-10-24T15:29:44.757Z,1.20
2022-10-24T15:32:19.064Z,1.90
2022-10-24T15:34:48.781Z,1.53
2022-10-24T15:37:21.505Z,1.43
2022-10-24T15:39:52.903Z,2.27
2022-10-24T15:42:24.053Z,1.80
2022-10-24T15:44:53.737Z,2.10
2022-10-24T15:47:26.934Z,2.40
2022-10-24T15:49:57.694Z,2.17
2022-10-24T15:52:27.365Z,1.83
2022-10-24T15:54:58.115Z,1.97
2022-10-24T15:57:27.716Z,1.80
2022-10-24T15:59:57.767Z,2.17
2022-10-24T16:02:31.028Z,1.53
2022-10-24T16:05:01.624Z,1.73
2022-10-24T16:07:32.263Z,1.40
2022-10-24T16:10:02.939Z,1.90
2022-10-24T16:12:33.662Z,1.63
2022-10-24T16:15:03.406Z,1.30
2022-10-24T16:17:36.741Z,1.80
2022-10-24T16:20:07.217Z,2.73
2022-10-24T16:22:37.939Z,6.80
2022-10-24T16:25:09.308Z,2.57
2022-10-24T16:27:41.068Z,1.87
2022-10-24T16:30:13.075Z,2.60
2022-10-24T16:32:45.994Z,1.97
2022-10-24T16:35:19.434Z,1.43
2022-10-24T16:37:50.142Z,2.57
2022-10-24T16:40:22.397Z,2.13
2022-10-24T16:42:53.679Z,2.20
2022-10-24T16:45:26.268Z,3.27
2022-10-24T16:47:58.791Z,2.87
2022-10-24T16:50:32.027Z,1.80
2022-10-24T16:53:06.872Z,1.80
2022-10-24T16:55:36.652Z,1.80
2022-10-24T16:58:07.441Z,2.43
2022-10-24T17:00:41.034Z,2.30
2022-10-24T17:03:13.489Z,1.73
2022-10-24T17:08:17.267Z,1.70
2022-10-24T17:10:47.013Z,1.80
2022-10-24T17:13:17.677Z,2.10
2022-10-24T17:15:48.324Z,2.03
2022-10-24T17:18:23.543Z,2.13
2022-10-24T17:20:58.893Z,2.00
2022-10-24T17:23:29.401Z,1.63
2022-10-24T17:25:59.349Z,1.80
2022-10-24T17:28:33.163Z,1.77
2022-10-24T17:31:03.473Z,1.73
2022-10-24T17:33:37.310Z,1.73
2022-10-24T17:36:09.131Z,2.00
2022-10-24T17:38:46.053Z,1.87
2022-10-24T17:41:23.707Z,2.03
2022-10-24T17:43:54.512Z,1.87
2022-10-24T17:46:25.089Z,1.60
2022-10-24T17:48:58.056Z,1.83
2022-10-24T17:51:32.372Z,2.03
2022-10-24T17:54:02.035Z,2.90
2022-10-24T17:56:32.760Z,1.57
2022-10-24T17:59:03.692Z,1.83
2022-10-24T18:01:34.505Z,1.70
2022-10-24T18:04:08.072Z,1.70
2022-10-24T18:06:43.010Z,1.90
2022-10-24T18:09:14.380Z,1.53
2022-10-24T18:11:45.044Z,1.33
2022-10-24T18:14:14.818Z,1.97
2022-10-24T18:16:45.333Z,1.90
2022-10-24T18:19:17.713Z,1.47
2022-10-24T18:21:48.683Z,2.30
2022-10-24T18:24:19.389Z,2.23
2022-10-24T18:26:50.075Z,1.97
2022-10-24T18:29:20.682Z,2.77
2022-10-24T18:31:51.362Z,1.70
2022-10-24T18:34:24.697Z,1.47
2022-10-24T18:36:55.405Z,1.70
2022-10-24T18:39:27.787Z,1.90
2022-10-24T18:42:04.815Z,1.77
2022-10-24T18:44:37.845Z,1.57
2022-10-24T18:47:09.910Z,2.83
2022-10-24T18:49:43.057Z,2.03
2022-10-24T18:52:19.908Z,1.60
2022-10-24T18:55:02.198Z,2.70
2022-10-24T18:57:36.624Z,2.80
2022-10-24T19:00:07.474Z,1.90
2022-10-24T19:02:43.211Z,2.30
2022-10-24T19:05:24.259Z,2.23
2022-10-24T19:07:54.581Z,1.80
2022-10-24T19:10:28.319Z,1.87
2022-10-24T19:12:59.764Z,2.20
2022-10-24T19:15:31.242Z,2.50
2022-10-24T19:18:01.193Z,2.20
2022-10-24T19:20:35.663Z,2.60
2022-10-24T19:23:06.250Z,2.20
2022-10-24T19:25:36.171Z,3.03
2022-10-24T19:28:05.932Z,6.10
2022-10-24T19:30:38.046Z,5.23
2022-10-24T19:33:07.766Z,2.70
2022-10-24T19:35:46.696Z,2.87
2022-10-24T19:38:16.719Z,2.37
2022-10-24T19:40:49.656Z,2.10
2022-10-24T19:43:19.494Z,2.00
2022-10-24T19:46:07.229Z,2.70
2022-10-24T19:48:39.585Z,3.00
2022-10-24T19:51:14.132Z,2.87
2022-10-24T19:53:46.786Z,2.27
2022-10-24T19:56:21.450Z,2.10
2022-10-24T19:58:53.788Z,2.50
2022-10-24T20:01:25.821Z,2.10
2022-10-24T20:03:57.684Z,2.03
2022-10-24T20:06:30.007Z,2.20
2022-10-24T20:08:59.756Z,1.93
2022-10-24T20:11:29.427Z,1.97
2022-10-24T20:14:00.199Z,1.87
2022-10-24T20:16:29.996Z,1.90
2022-10-24T20:18:59.736Z,1.77
2022-10-24T20:21:34.149Z,2.07
2022-10-24T20:24:04.085Z,2.10
2022-10-24T20:26:34.199Z,2.00
2022-10-24T20:29:04.554Z,2.30
2022-10-24T20:31:38.241Z,2.27
2022-10-24T20:34:09.921Z,2.20
2022-10-24T20:36:47.219Z,3.00
2022-10-24T20:39:21.009Z,1.80
2022-10-24T20:41:54.180Z,2.03
2022-10-24T20:44:25.348Z,1.97
2022-10-24T20:46:58.985Z,2.17
2022-10-24T20:49:29.848Z,1.77
2022-10-24T20:52:03.292Z,2.30
2022-10-24T20:54:34.186Z,2.20
2022-10-24T20:57:04.964Z,2.50
2022-10-24T20:59:39.006Z,2.43
2022-10-24T21:02:13.887Z,2.10
2022-10-24T21:04:45.812Z,2.63
2022-10-24T21:07:19.205Z,2.90
2022-10-24T21:09:50.126Z,2.57
2022-10-24T21:12:19.918Z,2.23
2022-10-24T21:14:50.818Z,2.10
2022-10-24T21:17:20.634Z,2.30
2022-10-24T21:19:51.834Z,3.20
2022-10-24T21:22:24.290Z,2.17
2022-10-24T21:24:53.993Z,2.50
2022-10-24T21:27:23.782Z,2.07
2022-10-24T21:29:53.543Z,2.80
2022-10-24T21:32:23.302Z,2.53
2022-10-24T21:34:53.042Z,1.97
2022-10-24T21:37:25.465Z,2.57
2022-10-24T21:39:55.307Z,2.23
2022-10-24T21:42:25.073Z,2.23
2022-10-24T21:44:54.870Z,2.00
2022-10-24T21:47:24.991Z,1.97
2022-10-24T21:49:54.732Z,2.20
2022-10-24T21:52:27.244Z,1.67
2022-10-24T21:54:57.095Z,1.97
2022-10-24T21:57:26.937Z,3.00
2022-10-24T21:59:56.663Z,1.83
2022-10-24T22:02:26.542Z,1.73
2022-10-24T22:04:56.371Z,2.37
2022-10-24T22:07:29.959Z,1.67
2022-10-24T22:09:59.724Z,1.73
2022-10-24T22:12:29.552Z,1.97
2022-10-24T22:14:59.358Z,1.97
2022-10-24T22:17:29.205Z,1.90
2022-10-24T22:19:58.974Z,1.90
2022-10-24T22:22:31.390Z,1.80
2022-10-24T22:25:01.148Z,2.60
2022-10-24T22:27:32.091Z,1.50
2022-10-24T22:30:01.904Z,2.20
2022-10-24T22:32:32.115Z,1.50
2022-10-24T22:35:02.508Z,1.43
2022-10-24T22:37:35.506Z,1.23
2022-10-24T22:40:05.922Z,1.80
2022-10-24T22:42:36.102Z,1.40
2022-10-24T22:45:06.979Z,1.40
2022-10-24T22:47:51.895Z,1.37
2022-10-24T22:50:38.597Z,1.50
2022-10-24T22:53:14.025Z,1.60
2022-10-24T22:55:52.278Z,1.33
2022-10-24T22:58:22.927Z,1.27
2022-10-24T23:00:58.797Z,1.40
2022-10-24T23:03:37.299Z,1.40
2022-10-24T23:06:14.868Z,1.40
2022-10-24T23:08:48.106Z,1.87
2022-10-24T23:11:18.407Z,1.43
2022-10-24T23:13:48.778Z,1.47
2022-10-24T23:16:28.087Z,1.10
2022-10-24T23:18:58.434Z,1.50
2022-10-24T23:21:34.481Z,2.10
2022-10-24T23:24:14.272Z,1.20
2022-10-24T23:26:49.688Z,1.63
2022-10-24T23:29:30.793Z,1.70
2022-10-24T23:32:01.358Z,1.93
2022-10-24T23:34:31.752Z,1.40
2022-10-24T23:37:05.050Z,1.40
2022-10-24T23:39:38.616Z,1.63
2022-10-24T23:42:09.163Z,1.27
2022-10-24T23:44:39.541Z,1.57
2022-10-24T23:47:16.983Z,1.47
2022-10-24T23:49:52.630Z,1.47
2022-10-24T23:52:29.180Z,1.30
2022-10-24T23:55:02.311Z,1.37
2022-10-24T23:57:32.661Z,1.47
